To NAV CANADA Home Page Login to a new session Search on AWWS site Feedback and Comments Disclaimer Vers la page française équivalente Tips FAQ What's new on the site To the Forecasts and Observations / NOTAM section To "File a Flight Plan" website Publications and other links Update of the User's profile FIC Telephone Numbers My Weather Data Folder Route Weather Data Regional Weather Data Local Weather Data To the Forecasts and Observations / NOTAM section
Request Generated 07/07/2015 at 17:48:32 UTC . Weather information available at that time is displayed.

METAR/TAF

ABBOTSFORD/BC    

METAR CYXX 071700Z 25007KT 200V260 20SM BKN110 19/13 A3005 RMK FU7
SLP174 DENSITY ALT 500FT=
METAR CYXX 071600Z 23006KT 20SM BKN110 18/13 A3005 RMK FU6 SLP177
DENSITY ALT 400FT=
METAR CYXX 071500Z 22006KT 15SM BKN100 16/13 A3005 RMK FU7 SLP177
DENSITY ALT 200FT=

TAF CYXX 071738Z 0718/0818 24008KT P6SM SCT100 TEMPO 0718/0806 5SM FU
BKN100
BECMG 0803/0805 VRB03KT
FM080600 VRB03KT P6SM SCT100 TEMPO 0806/0818 3SM FU BKN100
RMK NXT FCST BY 080000Z=
Your time UTC time
Weather data provided by Environment Canada and NAV CANADA